createdAt,value
2017-10-16T00:00:50.986Z,0
2017-10-16T00:02:01.458Z,0
2017-10-16T00:03:11.961Z,0
2017-10-16T00:04:22.479Z,0
2017-10-16T00:05:32.986Z,0
2017-10-16T00:06:43.458Z,0
2017-10-16T00:07:54.045Z,0
2017-10-16T00:09:04.152Z,0
2017-10-16T00:10:14.618Z,0
2017-10-16T00:11:25.094Z,0
2017-10-16T00:12:35.575Z,0
2017-10-16T00:13:46.133Z,0
2017-10-16T00:14:56.632Z,0
2017-10-16T00:16:07.103Z,0
2017-10-16T00:17:17.248Z,0
2017-10-16T00:18:27.774Z,0
2017-10-16T00:19:38.265Z,0
2017-10-16T00:20:48.827Z,0
2017-10-16T00:21:59.330Z,0
2017-10-16T00:23:09.824Z,0
2017-10-16T00:24:19.896Z,0
2017-10-16T00:25:30.613Z,0
2017-10-16T00:26:41.169Z,0
2017-10-16T00:27:51.326Z,0
2017-10-16T00:29:01.822Z,0
2017-10-16T00:30:12.357Z,0
2017-10-16T00:31:22.866Z,0
2017-10-16T00:32:33.079Z,0
2017-10-16T00:33:43.583Z,0
2017-10-16T00:34:54.086Z,0
2017-10-16T00:36:04.588Z,0
2017-10-16T00:37:16.057Z,0
2017-10-16T00:38:26.651Z,0
2017-10-16T00:39:37.175Z,0
2017-10-16T00:40:47.658Z,0
2017-10-16T00:41:58.238Z,0
2017-10-16T00:43:08.737Z,0
2017-10-16T00:44:19.262Z,0
2017-10-16T00:45:29.808Z,0
2017-10-16T00:46:40.016Z,0
2017-10-16T00:47:49.866Z,0
2017-10-16T00:49:00.069Z,0
2017-10-16T00:50:10.554Z,0
2017-10-16T00:51:20.626Z,0
2017-10-16T00:52:31.176Z,0
2017-10-16T00:53:41.666Z,0
2017-10-16T00:54:52.190Z,0
2017-10-16T00:56:02.697Z,0
2017-10-16T00:57:13.198Z,0
2017-10-16T00:58:23.752Z,0
2017-10-16T00:59:34.243Z,0
2017-10-16T01:00:44.732Z,0
2017-10-16T01:01:55.212Z,0
2017-10-16T01:03:05.692Z,0
2017-10-16T01:04:16.192Z,0
2017-10-16T01:05:26.362Z,0
2017-10-16T01:06:36.841Z,0
2017-10-16T01:07:46.998Z,0
2017-10-16T01:08:57.518Z,0
2017-10-16T01:10:07.991Z,0
2017-10-16T01:11:18.500Z,0
2017-10-16T01:12:28.989Z,0
2017-10-16T01:13:39.464Z,0
2017-10-16T01:14:49.929Z,0
2017-10-16T01:16:00.471Z,0
2017-10-16T01:17:10.991Z,0
2017-10-16T01:18:21.517Z,0
2017-10-16T01:19:32.050Z,0
2017-10-16T01:20:42.583Z,0
2017-10-16T01:21:53.087Z,0
2017-10-16T01:23:03.586Z,0
2017-10-16T01:24:14.089Z,0
2017-10-16T01:25:24.591Z,0
2017-10-16T01:26:35.084Z,0
2017-10-16T01:27:45.611Z,0
2017-10-16T01:28:56.315Z,0
2017-10-16T01:30:06.807Z,0
2017-10-16T01:31:17.280Z,0
2017-10-16T01:32:27.766Z,0
2017-10-16T01:33:37.761Z,0
2017-10-16T01:34:48.256Z,0
2017-10-16T01:35:58.780Z,0
2017-10-16T01:37:08.939Z,0
2017-10-16T01:38:19.418Z,0
2017-10-16T01:39:29.896Z,0
2017-10-16T01:40:40.384Z,0
2017-10-16T01:41:50.543Z,0
2017-10-16T01:43:00.714Z,0
2017-10-16T01:44:11.218Z,0
2017-10-16T01:45:21.732Z,0
2017-10-16T01:46:32.252Z,0
2017-10-16T01:47:42.734Z,0
2017-10-16T01:48:53.223Z,0
2017-10-16T01:50:03.727Z,0
2017-10-16T01:51:14.237Z,0
2017-10-16T01:52:24.723Z,0
2017-10-16T01:53:35.200Z,0
2017-10-16T01:54:45.691Z,0
2017-10-16T01:55:56.206Z,0
2017-10-16T01:57:06.703Z,0
2017-10-16T01:58:17.184Z,0
2017-10-16T01:59:27.332Z,0
2017-10-16T02:00:37.882Z,0
2017-10-16T02:01:48.401Z,0
2017-10-16T02:02:58.898Z,0
2017-10-16T02:04:09.400Z,0
2017-10-16T02:05:19.868Z,0
2017-10-16T02:06:30.347Z,0
2017-10-16T02:07:40.833Z,0
2017-10-16T02:08:51.442Z,0
2017-10-16T02:10:01.647Z,0
2017-10-16T02:11:12.237Z,0
2017-10-16T02:12:22.737Z,0
2017-10-16T02:13:33.237Z,0
2017-10-16T02:14:43.716Z,0
2017-10-16T02:15:54.213Z,0
2017-10-16T02:17:04.714Z,0
2017-10-16T02:18:15.186Z,0
2017-10-16T02:19:25.675Z,0
2017-10-16T02:20:36.136Z,0
2017-10-16T02:21:46.649Z,0
2017-10-16T02:22:57.124Z,0
2017-10-16T02:24:07.268Z,0
2017-10-16T02:25:17.735Z,0
2017-10-16T02:26:28.205Z,0
2017-10-16T02:27:38.757Z,0
2017-10-16T02:28:49.239Z,0
2017-10-16T02:29:59.713Z,0
2017-10-16T02:31:10.224Z,0
2017-10-16T02:32:20.694Z,0
2017-10-16T02:33:31.279Z,0
2017-10-16T02:34:41.453Z,0
2017-10-16T02:35:51.938Z,0
2017-10-16T02:37:02.470Z,0
2017-10-16T02:38:12.936Z,0
2017-10-16T02:39:23.161Z,0
2017-10-16T02:40:32.989Z,0
2017-10-16T02:41:43.202Z,0
2017-10-16T02:42:53.681Z,0
2017-10-16T02:44:04.221Z,0
2017-10-16T02:45:14.710Z,0
2017-10-16T02:46:24.882Z,0
2017-10-16T02:47:36.026Z,0
2017-10-16T02:48:46.519Z,0
2017-10-16T02:49:56.649Z,0
2017-10-16T02:51:07.159Z,0
2017-10-16T02:52:17.626Z,0
2017-10-16T02:53:28.099Z,0
2017-10-16T02:54:38.264Z,0
2017-10-16T02:55:48.430Z,0
2017-10-16T02:56:58.908Z,0
2017-10-16T02:58:09.403Z,0
2017-10-16T02:59:19.880Z,0
2017-10-16T03:00:30.374Z,0
2017-10-16T03:01:40.512Z,0
2017-10-16T03:02:51.197Z,0
2017-10-16T03:04:01.721Z,0
2017-10-16T03:05:11.861Z,0
2017-10-16T03:06:22.016Z,0
2017-10-16T03:07:32.627Z,0
2017-10-16T03:08:43.317Z,0
2017-10-16T03:09:54.049Z,0
2017-10-16T03:11:04.514Z,0
2017-10-16T03:12:14.995Z,0
2017-10-16T03:13:25.472Z,0
2017-10-16T03:14:35.953Z,0
2017-10-16T03:15:46.427Z,0
2017-10-16T03:16:57.896Z,0
2017-10-16T03:18:08.062Z,0
2017-10-16T03:19:18.573Z,0
2017-10-16T03:20:29.078Z,0
2017-10-16T03:21:39.562Z,0
2017-10-16T03:22:50.048Z,0
2017-10-16T03:24:00.568Z,0
2017-10-16T03:25:10.668Z,0
2017-10-16T03:26:21.142Z,0
2017-10-16T03:27:31.698Z,0
2017-10-16T03:28:41.943Z,0
2017-10-16T03:29:52.412Z,0
2017-10-16T03:31:02.904Z,0
2017-10-16T03:32:13.403Z,0
2017-10-16T03:33:24.044Z,0
2017-10-16T03:34:34.630Z,0
2017-10-16T03:35:45.172Z,0
2017-10-16T03:36:55.344Z,0
2017-10-16T03:38:05.852Z,0
2017-10-16T03:39:16.372Z,0
2017-10-16T03:40:26.896Z,0
2017-10-16T03:41:37.490Z,0
2017-10-16T03:42:47.981Z,0
2017-10-16T03:43:58.441Z,0
2017-10-16T03:45:08.949Z,0
2017-10-16T03:46:19.414Z,0
2017-10-16T03:47:29.591Z,0
2017-10-16T03:48:40.111Z,0
2017-10-16T03:49:50.591Z,0
2017-10-16T03:51:01.065Z,0
2017-10-16T03:52:11.547Z,0
2017-10-16T03:53:21.709Z,0
2017-10-16T03:54:32.188Z,0
2017-10-16T03:55:42.692Z,0
2017-10-16T03:56:53.204Z,0
2017-10-16T03:58:03.707Z,0
2017-10-16T03:59:14.196Z,0
2017-10-16T04:00:24.811Z,0
2017-10-16T04:01:35.300Z,0
2017-10-16T04:02:46.134Z,0
2017-10-16T04:03:56.631Z,0
2017-10-16T04:05:07.177Z,0
2017-10-16T04:06:18.273Z,0
2017-10-16T04:07:28.739Z,0
2017-10-16T04:08:39.237Z,0
2017-10-16T04:09:49.763Z,0
2017-10-16T04:11:00.287Z,0
2017-10-16T04:12:10.778Z,0
2017-10-16T04:13:21.274Z,0
2017-10-16T04:14:31.802Z,0
2017-10-16T04:15:42.493Z,0
2017-10-16T04:16:53.175Z,0
2017-10-16T04:18:03.675Z,0
2017-10-16T04:19:14.183Z,0
2017-10-16T04:20:24.676Z,0
2017-10-16T04:21:35.172Z,0
2017-10-16T04:22:45.641Z,0
2017-10-16T04:23:56.047Z,0
2017-10-16T04:25:06.545Z,0
2017-10-16T04:26:17.086Z,0
2017-10-16T04:27:27.256Z,0
2017-10-16T04:28:37.900Z,0
2017-10-16T04:29:48.377Z,0
2017-10-16T04:30:58.903Z,0
2017-10-16T04:32:09.047Z,0
2017-10-16T04:33:19.532Z,0
2017-10-16T04:34:30.042Z,0
2017-10-16T04:35:40.528Z,0
2017-10-16T04:36:51.032Z,0
2017-10-16T04:38:01.627Z,0
2017-10-16T04:39:12.112Z,0
2017-10-16T04:40:22.611Z,0
2017-10-16T04:41:33.101Z,0
2017-10-16T04:42:43.429Z,0
2017-10-16T04:43:53.916Z,0
2017-10-16T04:45:04.417Z,0
2017-10-16T04:46:14.914Z,0
2017-10-16T04:47:25.468Z,0
2017-10-16T04:48:35.955Z,0
2017-10-16T04:49:46.440Z,0
2017-10-16T04:50:56.941Z,0
2017-10-16T04:52:07.414Z,0
2017-10-16T04:53:17.919Z,0
2017-10-16T04:54:28.396Z,0
2017-10-16T04:55:38.965Z,0
2017-10-16T04:56:49.464Z,0
2017-10-16T04:57:59.980Z,0
2017-10-16T04:59:10.528Z,0
2017-10-16T05:00:21.026Z,0
2017-10-16T05:01:31.569Z,0
2017-10-16T05:02:42.078Z,0
2017-10-16T05:03:52.541Z,0
2017-10-16T05:05:02.720Z,0
2017-10-16T05:06:14.298Z,0
2017-10-16T05:07:24.761Z,0
2017-10-16T05:08:35.277Z,0
2017-10-16T05:09:45.754Z,0
2017-10-16T05:10:55.963Z,0
2017-10-16T05:12:06.445Z,0
2017-10-16T05:13:16.659Z,0
2017-10-16T05:14:27.167Z,0
2017-10-16T05:15:37.770Z,0
2017-10-16T05:16:47.919Z,0
2017-10-16T05:17:58.402Z,0
2017-10-16T05:19:08.889Z,0
2017-10-16T05:20:19.036Z,0
2017-10-16T05:21:29.509Z,0
2017-10-16T05:22:40.106Z,0
2017-10-16T05:23:50.612Z,0
2017-10-16T05:25:01.493Z,0
2017-10-16T05:26:11.619Z,0
2017-10-16T05:27:22.181Z,0
2017-10-16T05:28:32.697Z,0
2017-10-16T05:29:43.187Z,0
2017-10-16T05:30:53.696Z,0
2017-10-16T05:32:04.173Z,0
2017-10-16T05:33:14.759Z,5
2017-10-16T05:34:25.249Z,5
2017-10-16T05:35:35.411Z,5
2017-10-16T05:36:45.895Z,5
2017-10-16T05:37:56.049Z,5
2017-10-16T05:39:06.549Z,5
2017-10-16T05:40:16.746Z,10
2017-10-16T05:41:27.264Z,10
2017-10-16T05:42:37.763Z,10
2017-10-16T05:43:47.914Z,10
2017-10-16T05:44:58.421Z,15
2017-10-16T05:46:08.648Z,15
2017-10-16T05:47:19.171Z,15
2017-10-16T05:48:29.751Z,20
2017-10-16T05:49:40.324Z,20
2017-10-16T05:50:50.790Z,20
2017-10-16T05:52:01.324Z,25
2017-10-16T05:53:11.469Z,25
2017-10-16T05:54:21.940Z,25
2017-10-16T05:55:32.441Z,25
2017-10-16T05:56:42.915Z,30
2017-10-16T05:57:53.428Z,30
2017-10-16T05:59:03.915Z,35
2017-10-16T06:00:13.969Z,35
2017-10-16T06:01:24.047Z,35
2017-10-16T06:02:34.402Z,40
2017-10-16T06:03:45.991Z,40
2017-10-16T06:04:56.060Z,40
2017-10-16T06:06:06.112Z,45
2017-10-16T06:07:16.206Z,45
2017-10-16T06:08:26.322Z,45
2017-10-16T06:09:36.797Z,50
2017-10-16T06:10:48.315Z,50
2017-10-16T06:11:58.393Z,50
2017-10-16T06:13:09.856Z,55
2017-10-16T06:14:19.937Z,55
2017-10-16T06:15:31.401Z,60
2017-10-16T06:16:41.632Z,60
2017-10-16T06:17:52.802Z,60
2017-10-16T06:19:03.306Z,65
2017-10-16T06:20:14.883Z,65
2017-10-16T06:21:25.065Z,65
2017-10-16T06:22:35.127Z,70
2017-10-16T06:23:44.537Z,70
2017-10-16T06:24:55.034Z,75
2017-10-16T06:26:04.757Z,75
2017-10-16T06:27:14.834Z,75
2017-10-16T06:28:24.895Z,80
2017-10-16T06:29:34.749Z,80
2017-10-16T06:30:45.152Z,80
2017-10-16T06:31:54.354Z,85
2017-10-16T06:33:03.132Z,85
2017-10-16T06:34:13.727Z,90
2017-10-16T06:35:24.248Z,90
2017-10-16T06:36:33.380Z,95
2017-10-16T06:37:42.130Z,95
2017-10-16T06:38:51.282Z,100
2017-10-16T06:40:00.250Z,100
2017-10-16T06:41:09.744Z,105
2017-10-16T06:42:20.609Z,110
2017-10-16T06:43:30.782Z,115
2017-10-16T06:44:39.530Z,115
2017-10-16T06:45:48.777Z,120
2017-10-16T06:46:57.528Z,130
2017-10-16T06:48:06.695Z,125
2017-10-16T06:49:15.789Z,130
2017-10-16T06:50:26.289Z,135
2017-10-16T06:51:37.228Z,140
2017-10-16T06:52:48.056Z,145
2017-10-16T06:53:57.588Z,145
2017-10-16T06:55:07.763Z,150
2017-10-16T06:56:16.862Z,150
2017-10-16T06:57:27.059Z,155
2017-10-16T06:58:37.926Z,160
2017-10-16T06:59:48.797Z,160
2017-10-16T07:00:57.884Z,165
2017-10-16T07:02:06.985Z,205
2017-10-16T07:03:17.840Z,295
2017-10-16T07:04:28.388Z,365
2017-10-16T07:05:37.259Z,395
2017-10-16T07:06:47.418Z,410
2017-10-16T07:07:56.499Z,435
2017-10-16T07:09:08.345Z,455
2017-10-16T07:10:19.249Z,475
2017-10-16T07:11:28.326Z,490
2017-10-16T07:12:37.184Z,505
2017-10-16T07:13:46.698Z,525
2017-10-16T07:14:57.184Z,530
2017-10-16T07:16:05.937Z,545
2017-10-16T07:17:15.348Z,580
2017-10-16T07:18:24.116Z,590
2017-10-16T07:19:33.556Z,605
2017-10-16T07:20:45.000Z,605
2017-10-16T07:21:53.772Z,600
2017-10-16T07:23:04.355Z,615
2017-10-16T07:24:15.951Z,630
2017-10-16T07:25:26.025Z,640
2017-10-16T07:26:35.870Z,660
2017-10-16T07:27:45.925Z,655
2017-10-16T07:28:55.208Z,660
2017-10-16T07:30:04.392Z,685
2017-10-16T07:31:14.024Z,700
2017-10-16T07:32:24.175Z,705
2017-10-16T07:33:32.929Z,695
2017-10-16T07:34:43.794Z,700
2017-10-16T07:35:53.985Z,730
2017-10-16T07:37:04.453Z,805
2017-10-16T07:38:13.576Z,855
2017-10-16T07:39:22.327Z,865
2017-10-16T07:40:31.519Z,875
2017-10-16T07:41:40.563Z,915
2017-10-16T07:42:49.407Z,920
2017-10-16T07:43:58.510Z,950
2017-10-16T07:45:07.281Z,960
2017-10-16T07:46:17.790Z,940
2017-10-16T07:47:27.936Z,905
2017-10-16T07:48:38.480Z,885
2017-10-16T07:49:49.038Z,875
2017-10-16T07:50:59.156Z,920
2017-10-16T07:52:08.753Z,945
2017-10-16T07:53:17.519Z,950
2017-10-16T07:54:26.608Z,945
2017-10-16T07:55:35.688Z,945
2017-10-16T07:56:44.784Z,970
2017-10-16T07:57:54.973Z,990
2017-10-16T07:59:04.390Z,995
2017-10-16T08:00:15.014Z,985
2017-10-16T08:01:24.107Z,980
2017-10-16T08:02:33.312Z,1035
2017-10-16T08:03:42.086Z,1140
2017-10-16T08:04:52.911Z,1130
2017-10-16T08:06:01.679Z,1055
2017-10-16T08:07:13.165Z,1015
2017-10-16T08:08:22.354Z,1000
2017-10-16T08:09:33.382Z,1020
2017-10-16T08:10:42.558Z,1050
2017-10-16T08:11:52.110Z,1160
2017-10-16T08:13:01.647Z,1270
2017-10-16T08:14:11.273Z,1290
2017-10-16T08:15:20.041Z,1220
2017-10-16T08:16:29.586Z,1250
2017-10-16T08:17:40.067Z,1300
2017-10-16T08:18:48.842Z,1215
2017-10-16T08:19:59.681Z,1150
2017-10-16T08:21:09.865Z,1140
2017-10-16T08:22:20.699Z,1170
2017-10-16T08:23:30.775Z,1215
2017-10-16T08:24:39.892Z,1230
2017-10-16T08:25:50.048Z,1230
2017-10-16T08:27:00.437Z,1240
2017-10-16T08:28:10.844Z,1290
2017-10-16T08:29:21.265Z,1340
2017-10-16T08:30:32.110Z,1380
2017-10-16T08:31:41.643Z,1405
2017-10-16T08:32:53.444Z,1430
2017-10-16T08:34:02.558Z,1400
2017-10-16T08:35:11.666Z,1365
2017-10-16T08:36:20.436Z,1405
2017-10-16T08:37:29.595Z,1465
2017-10-16T08:38:38.381Z,1490
2017-10-16T08:39:48.176Z,1495
2017-10-16T08:40:57.614Z,1430
2017-10-16T08:42:06.819Z,1410
2017-10-16T08:43:15.984Z,1440
2017-10-16T08:44:26.049Z,1470
2017-10-16T08:45:35.151Z,1490
2017-10-16T08:46:45.991Z,1480
2017-10-16T08:47:54.768Z,1470
2017-10-16T08:49:04.969Z,1500
2017-10-16T08:50:14.066Z,1560
2017-10-16T08:51:23.523Z,1500
2017-10-16T08:52:33.695Z,1475
2017-10-16T08:53:43.556Z,1540
2017-10-16T08:54:52.343Z,1580
2017-10-16T08:56:01.115Z,1580
2017-10-16T08:57:11.631Z,1580
2017-10-16T08:58:21.170Z,1605
2017-10-16T08:59:29.973Z,1600
2017-10-16T09:00:39.859Z,1570
2017-10-16T09:01:49.033Z,1560
2017-10-16T09:02:59.554Z,1555
2017-10-16T09:04:08.759Z,1550
2017-10-16T09:05:17.531Z,1485
2017-10-16T09:06:26.854Z,1415
2017-10-16T09:07:35.952Z,1380
2017-10-16T09:08:45.152Z,1375
2017-10-16T09:09:56.332Z,1390
2017-10-16T09:11:07.195Z,1420
2017-10-16T09:12:16.289Z,1485
2017-10-16T09:13:27.264Z,1555
2017-10-16T09:14:36.380Z,1700
2017-10-16T09:15:47.865Z,1900
2017-10-16T09:16:56.639Z,1910
2017-10-16T09:18:05.465Z,1765
2017-10-16T09:19:15.407Z,1650
2017-10-16T09:20:25.584Z,1625
2017-10-16T09:21:34.705Z,1675
2017-10-16T09:22:44.912Z,1770
2017-10-16T09:23:55.094Z,1815
2017-10-16T09:25:04.215Z,1795
2017-10-16T09:26:14.083Z,1825
2017-10-16T09:27:23.202Z,1820
2017-10-16T09:28:32.339Z,1775
2017-10-16T09:29:41.786Z,1745
2017-10-16T09:30:51.375Z,1725
2017-10-16T09:32:01.595Z,1700
2017-10-16T09:33:12.477Z,1665
2017-10-16T09:34:22.710Z,1675
2017-10-16T09:35:33.214Z,1735
2017-10-16T09:36:43.764Z,1820
2017-10-16T09:37:52.536Z,1900
2017-10-16T09:39:01.989Z,1980
2017-10-16T09:40:12.156Z,2065
2017-10-16T09:41:21.486Z,2140
2017-10-16T09:42:31.045Z,2145
2017-10-16T09:43:40.236Z,2185
2017-10-16T09:44:49.487Z,2155
2017-10-16T09:46:00.021Z,2180
2017-10-16T09:47:12.185Z,2195
2017-10-16T09:48:21.764Z,2130
2017-10-16T09:49:32.211Z,1990
2017-10-16T09:50:43.690Z,1915
2017-10-16T09:51:52.822Z,1900
2017-10-16T09:53:02.345Z,1920
2017-10-16T09:54:11.141Z,1925
2017-10-16T09:55:20.238Z,1880
2017-10-16T09:56:30.340Z,1885
2017-10-16T09:57:41.237Z,1930
2017-10-16T09:58:50.455Z,2005
2017-10-16T10:00:00.657Z,2065
2017-10-16T10:01:11.192Z,2045
2017-10-16T10:02:21.368Z,1980
2017-10-16T10:03:33.180Z,1905
2017-10-16T10:04:42.287Z,1905
2017-10-16T10:05:51.092Z,1870
2017-10-16T10:07:02.262Z,1865
2017-10-16T10:08:11.415Z,1865
2017-10-16T10:09:21.911Z,1880
2017-10-16T10:10:33.440Z,1900
2017-10-16T10:11:43.947Z,1900
2017-10-16T10:12:53.398Z,1880
2017-10-16T10:14:02.584Z,1890
2017-10-16T10:15:13.139Z,1870
2017-10-16T10:16:22.272Z,1865
2017-10-16T10:17:31.087Z,1835
2017-10-16T10:18:42.065Z,1795
2017-10-16T10:19:51.618Z,1780
2017-10-16T10:21:02.449Z,1790
2017-10-16T10:22:11.553Z,1875
2017-10-16T10:23:22.062Z,1895
2017-10-16T10:24:31.653Z,1890
2017-10-16T10:25:41.836Z,1900
2017-10-16T10:26:51.113Z,1875
2017-10-16T10:28:00.231Z,1870
2017-10-16T10:29:09.469Z,1880
2017-10-16T10:30:19.237Z,1895
2017-10-16T10:31:28.380Z,1875
2017-10-16T10:32:38.462Z,1805
2017-10-16T10:33:48.964Z,1740
2017-10-16T10:34:58.172Z,1725
2017-10-16T10:36:08.055Z,1735
2017-10-16T10:37:17.615Z,1805
2017-10-16T10:38:26.704Z,1845
2017-10-16T10:39:36.161Z,1860
2017-10-16T10:40:46.616Z,1875
2017-10-16T10:41:55.404Z,1845
2017-10-16T10:43:05.506Z,1825
2017-10-16T10:44:14.280Z,1840
2017-10-16T10:45:24.390Z,1850
2017-10-16T10:46:35.251Z,1850
2017-10-16T10:47:44.028Z,1875
2017-10-16T10:48:54.198Z,1860
2017-10-16T10:50:04.270Z,1825
2017-10-16T10:51:13.487Z,1765
2017-10-16T10:52:24.316Z,1775
2017-10-16T10:53:37.022Z,1835
2017-10-16T10:54:46.115Z,1880
2017-10-16T10:55:56.622Z,1895
2017-10-16T10:57:05.751Z,1880
2017-10-16T10:58:14.860Z,1825
2017-10-16T10:59:24.340Z,1780
2017-10-16T11:00:33.112Z,1800
2017-10-16T11:01:43.399Z,1875
2017-10-16T11:02:52.189Z,1935
2017-10-16T11:04:02.292Z,1965
2017-10-16T11:05:13.125Z,1945
2017-10-16T11:06:23.317Z,1900
2017-10-16T11:07:32.506Z,1855
2017-10-16T11:08:43.125Z,1800
2017-10-16T11:09:53.343Z,1785
2017-10-16T11:11:04.831Z,1800
2017-10-16T11:12:14.137Z,1860
2017-10-16T11:13:23.611Z,1880
2017-10-16T11:14:32.391Z,1820
2017-10-16T11:15:42.011Z,1730
2017-10-16T11:16:50.784Z,1705
2017-10-16T11:17:59.674Z,1705
2017-10-16T11:19:08.474Z,1765
2017-10-16T11:20:20.618Z,1810
2017-10-16T11:21:31.160Z,1810
2017-10-16T11:22:42.026Z,1805
2017-10-16T11:23:52.251Z,1785
2017-10-16T11:25:01.864Z,1785
2017-10-16T11:26:10.633Z,1755
2017-10-16T11:27:19.426Z,1765
2017-10-16T11:28:28.858Z,1805
2017-10-16T11:29:39.472Z,1840
2017-10-16T11:30:49.565Z,1865
2017-10-16T11:32:00.089Z,1805
2017-10-16T11:33:09.567Z,1740
2017-10-16T11:34:19.258Z,1720
2017-10-16T11:35:30.155Z,1755
2017-10-16T11:36:39.261Z,1740
2017-10-16T11:37:50.151Z,1715
2017-10-16T11:38:59.925Z,1665
2017-10-16T11:40:08.701Z,1660
2017-10-16T11:41:18.174Z,1685
2017-10-16T11:42:26.958Z,1720
2017-10-16T11:43:37.515Z,1720
2017-10-16T11:44:46.730Z,1715
2017-10-16T11:45:57.248Z,1710
2017-10-16T11:47:06.457Z,1720
2017-10-16T11:48:15.773Z,1725
2017-10-16T11:49:25.950Z,1715
2017-10-16T11:50:34.740Z,1685
2017-10-16T11:51:45.499Z,1630
2017-10-16T11:52:54.267Z,1635
2017-10-16T11:54:03.626Z,1635
2017-10-16T11:55:12.713Z,1630
2017-10-16T11:56:22.091Z,1595
2017-10-16T11:57:30.860Z,1555
2017-10-16T11:58:41.069Z,1575
2017-10-16T11:59:51.276Z,1685
2017-10-16T12:01:00.049Z,1780
2017-10-16T12:02:08.841Z,1770
2017-10-16T12:03:17.732Z,1750
2017-10-16T12:04:28.338Z,1575
2017-10-16T12:05:37.126Z,1680
2017-10-16T12:06:47.319Z,1620
2017-10-16T12:07:57.294Z,1585
2017-10-16T12:09:07.608Z,1685
2017-10-16T12:10:16.838Z,1720
2017-10-16T12:11:25.990Z,1740
2017-10-16T12:12:35.433Z,1740
2017-10-16T12:13:46.300Z,1740
2017-10-16T12:14:55.418Z,1750
2017-10-16T12:16:04.957Z,1715
2017-10-16T12:17:14.128Z,1650
2017-10-16T12:18:24.628Z,1585
2017-10-16T12:19:34.721Z,1570
2017-10-16T12:20:44.167Z,1605
2017-10-16T12:21:54.350Z,1685
2017-10-16T12:23:03.921Z,1780
2017-10-16T12:24:13.034Z,1790
2017-10-16T12:25:24.885Z,1675
2017-10-16T12:26:34.364Z,1550
2017-10-16T12:27:44.316Z,1505
2017-10-16T12:28:54.856Z,1515
2017-10-16T12:30:05.714Z,1555
2017-10-16T12:31:16.357Z,1535
2017-10-16T12:32:25.168Z,1525
2017-10-16T12:33:37.451Z,1510
2017-10-16T12:34:46.672Z,1475
2017-10-16T12:35:55.459Z,1440
2017-10-16T12:37:04.678Z,1425
2017-10-16T12:38:15.152Z,1430
2017-10-16T12:39:26.976Z,1510
2017-10-16T12:40:36.687Z,1555
2017-10-16T12:41:47.543Z,1550
2017-10-16T12:42:57.217Z,1510
2017-10-16T12:44:07.855Z,1475
2017-10-16T12:45:16.629Z,1455
2017-10-16T12:46:27.175Z,1435
2017-10-16T12:47:36.286Z,1410
2017-10-16T12:48:45.520Z,1375
2017-10-16T12:49:55.670Z,1310
2017-10-16T12:51:05.593Z,1280
2017-10-16T12:52:16.523Z,1255
2017-10-16T12:53:25.644Z,1260
2017-10-16T12:54:34.752Z,1305
2017-10-16T12:55:44.017Z,1350
2017-10-16T12:56:52.799Z,1330
2017-10-16T12:58:02.378Z,1290
2017-10-16T12:59:11.178Z,1270
2017-10-16T13:00:20.801Z,1290
2017-10-16T13:01:29.593Z,1310
2017-10-16T13:02:40.144Z,1340
2017-10-16T13:03:50.363Z,1350
2017-10-16T13:04:59.465Z,1330
2017-10-16T13:06:10.298Z,1310
2017-10-16T13:07:19.451Z,1335
2017-10-16T13:08:29.723Z,1335
2017-10-16T13:09:40.300Z,1290
2017-10-16T13:10:49.401Z,1250
2017-10-16T13:12:00.236Z,1255
2017-10-16T13:13:10.427Z,1230
2017-10-16T13:14:20.639Z,1190
2017-10-16T13:15:30.193Z,1140
2017-10-16T13:16:40.685Z,1110
2017-10-16T13:17:50.768Z,1130
2017-10-16T13:19:02.159Z,1215
2017-10-16T13:20:11.340Z,1255
2017-10-16T13:21:20.852Z,1235
2017-10-16T13:22:30.545Z,1135
2017-10-16T13:23:39.763Z,1080
2017-10-16T13:24:48.913Z,1070
2017-10-16T13:25:58.371Z,1075
2017-10-16T13:27:09.222Z,1060
2017-10-16T13:28:18.356Z,1020
2017-10-16T13:29:28.412Z,1010
2017-10-16T13:30:37.186Z,1030
2017-10-16T13:31:45.983Z,1030
2017-10-16T13:32:57.801Z,1015
2017-10-16T13:34:07.272Z,1025
2017-10-16T13:35:16.432Z,1025
2017-10-16T13:36:25.572Z,1030
2017-10-16T13:37:34.708Z,1015
2017-10-16T13:38:46.532Z,1025
2017-10-16T13:39:58.263Z,1045
2017-10-16T13:41:09.122Z,1060
2017-10-16T13:42:19.971Z,1060
2017-10-16T13:43:30.102Z,1025
2017-10-16T13:44:39.235Z,995
2017-10-16T13:45:48.765Z,955
2017-10-16T13:46:59.299Z,915
2017-10-16T13:48:10.806Z,910
2017-10-16T13:49:22.297Z,930
2017-10-16T13:50:33.496Z,940
2017-10-16T13:51:42.966Z,905
2017-10-16T13:52:51.766Z,865
2017-10-16T13:54:01.900Z,855
2017-10-16T13:55:11.081Z,880
2017-10-16T13:56:21.535Z,910
2017-10-16T13:57:33.720Z,895
2017-10-16T13:58:44.199Z,850
2017-10-16T13:59:55.126Z,845
2017-10-16T14:01:04.593Z,835
2017-10-16T14:02:14.383Z,810
2017-10-16T14:03:25.736Z,790
2017-10-16T14:04:35.219Z,805
2017-10-16T14:05:44.681Z,810
2017-10-16T14:06:55.556Z,790
2017-10-16T14:08:04.694Z,790
2017-10-16T14:09:13.929Z,760
2017-10-16T14:10:23.031Z,710
2017-10-16T14:11:33.245Z,685
2017-10-16T14:12:42.467Z,680
2017-10-16T14:13:51.574Z,690
2017-10-16T14:15:02.126Z,720
2017-10-16T14:16:13.005Z,720
2017-10-16T14:17:23.183Z,690
2017-10-16T14:18:32.660Z,665
2017-10-16T14:19:42.801Z,650
2017-10-16T14:20:51.612Z,645
2017-10-16T14:22:03.443Z,655
2017-10-16T14:23:13.906Z,670
2017-10-16T14:24:24.795Z,650
2017-10-16T14:25:33.980Z,625
2017-10-16T14:26:42.766Z,615
2017-10-16T14:27:52.365Z,615
2017-10-16T14:29:01.145Z,615
2017-10-16T14:30:12.076Z,595
2017-10-16T14:31:21.302Z,590
2017-10-16T14:32:32.789Z,595
2017-10-16T14:33:42.243Z,600
2017-10-16T14:34:51.052Z,565
2017-10-16T14:36:02.258Z,540
2017-10-16T14:37:12.319Z,530
2017-10-16T14:38:21.709Z,540
2017-10-16T14:39:31.597Z,530
2017-10-16T14:40:41.792Z,525
2017-10-16T14:41:51.328Z,525
2017-10-16T14:43:02.213Z,525
2017-10-16T14:44:12.727Z,500
2017-10-16T14:45:24.687Z,470
2017-10-16T14:46:35.130Z,460
2017-10-16T14:47:44.349Z,455
2017-10-16T14:48:57.188Z,440
2017-10-16T14:50:09.023Z,430
2017-10-16T14:51:18.172Z,425
2017-10-16T14:52:27.629Z,425
2017-10-16T14:53:38.485Z,410
2017-10-16T14:54:47.632Z,400
2017-10-16T14:55:58.143Z,385
2017-10-16T14:57:08.725Z,380
2017-10-16T14:58:18.897Z,370
2017-10-16T14:59:32.054Z,350
2017-10-16T15:00:40.833Z,340
2017-10-16T15:01:50.072Z,340
2017-10-16T15:02:59.294Z,340
2017-10-16T15:04:10.146Z,315
2017-10-16T15:05:20.588Z,270
2017-10-16T15:06:30.992Z,225
2017-10-16T15:07:41.653Z,205
2017-10-16T15:08:51.205Z,190
2017-10-16T15:10:00.891Z,185
2017-10-16T15:11:11.283Z,180
2017-10-16T15:12:21.471Z,175
2017-10-16T15:13:32.305Z,170
2017-10-16T15:14:42.836Z,160
2017-10-16T15:15:53.342Z,155
2017-10-16T15:17:03.873Z,150
2017-10-16T15:18:13.035Z,145
2017-10-16T15:19:22.522Z,145
2017-10-16T15:20:32.352Z,140
2017-10-16T15:21:43.850Z,140
2017-10-16T15:22:53.096Z,130
2017-10-16T15:24:04.925Z,125
2017-10-16T15:25:16.736Z,120
2017-10-16T15:26:27.610Z,120
2017-10-16T15:27:39.417Z,115
2017-10-16T15:28:49.622Z,110
2017-10-16T15:29:59.193Z,105
2017-10-16T15:31:09.699Z,100
2017-10-16T15:32:18.950Z,100
2017-10-16T15:33:29.132Z,95
2017-10-16T15:34:39.232Z,95
2017-10-16T15:35:48.674Z,90
2017-10-16T15:36:58.850Z,90
2017-10-16T15:38:08.091Z,85
2017-10-16T15:39:17.561Z,80
2017-10-16T15:40:29.384Z,80
2017-10-16T15:41:38.541Z,75
2017-10-16T15:42:51.439Z,70
2017-10-16T15:44:01.954Z,65
2017-10-16T15:45:12.215Z,65
2017-10-16T15:46:21.400Z,60
2017-10-16T15:47:31.534Z,60
2017-10-16T15:48:42.521Z,55
2017-10-16T15:49:52.943Z,50
2017-10-16T15:51:02.079Z,50
2017-10-16T15:52:14.264Z,50
2017-10-16T15:53:23.490Z,50
2017-10-16T15:54:32.672Z,45
2017-10-16T15:55:42.572Z,40
2017-10-16T15:56:52.502Z,40
2017-10-16T15:58:01.851Z,35
2017-10-16T15:59:11.067Z,35
2017-10-16T16:00:22.088Z,30
2017-10-16T16:01:31.184Z,30
2017-10-16T16:02:40.324Z,30
2017-10-16T16:03:51.183Z,25
2017-10-16T16:05:02.241Z,25
2017-10-16T16:06:12.975Z,20
2017-10-16T16:07:23.869Z,20
2017-10-16T16:08:33.102Z,20
2017-10-16T16:09:43.598Z,15
2017-10-16T16:10:55.432Z,15
2017-10-16T16:12:04.575Z,15
2017-10-16T16:13:15.821Z,10
2017-10-16T16:14:26.229Z,10
2017-10-16T16:15:35.355Z,10
2017-10-16T16:16:46.319Z,10
2017-10-16T16:17:56.594Z,10
2017-10-16T16:19:06.880Z,5
2017-10-16T16:20:17.107Z,5
2017-10-16T16:21:26.688Z,5